Takasugawamaru — JJ3828 — position and weather

sailwx.info

Track history (hours):
 
Tides and Currents Weather Stations Pressure Air Temp Water Temp Dewpoint Dewpoint Depression Visibility Wind Speed Wind Dir Waves Ship Positions

Takasugawamaru

Last reported at 2017-Nov-15 12:59 UTC. Time now 2017-Nov-25 02:10 UTC.
Position N 35°01' E 139°28'.
Warning: this ship's position is 9 days out of date.

Length 64 m; draft 5.2 m.

Type: Cargo ship. MMSI: 431100208.

Date/timePositionNaut miles runAvg speedWind from/ knotsBaromVisibWave heightAir tempDewpointWater temp
2017-Nov-15 12:59N 35°01' E 139°28'5 8.7
2017-Nov-15 12:25N 35°03' E 139°33'4 8.9
2017-Nov-15 12:00N 35°05' E 139°37'5 9.8
2017-Nov-15 11:30N 35°08' E 139°42'510.7
2017-Nov-15 11:00N 35°12' E 139°46'510.7
2017-Nov-15 10:30N 35°17' E 139°45'510.2
2017-Nov-15 10:00N 35°22' E 139°42'5 9.9
2017-Nov-15 09:31N 35°27' E 139°41'2 4.4
2017-Nov-15 09:01N 35°29' E 139°40'0 0.0
2017-Nov-15 08:30N 35°29' E 139°40'0 0.0
2017-Nov-15 08:01N 35°29' E 139°40'0 0.0
2017-Nov-15 07:31N 35°29' E 139°40'0 0.0
2017-Nov-15 07:00N 35°29' E 139°40'0 0.0
2017-Nov-15 06:30N 35°29' E 139°40'0 0.0
2017-Nov-15 06:01N 35°29' E 139°40'0 0.0
2017-Nov-15 05:31N 35°29' E 139°40'0 0.0
2017-Nov-15 05:00N 35°29' E 139°40'0 0.0
2017-Nov-15 04:31N 35°29' E 139°40'0 0.0
2017-Nov-15 04:01N 35°29' E 139°40'0 0.0
2017-Nov-15 03:30N 35°29' E 139°40'0 0.0
2017-Nov-15 03:00N 35°29' E 139°40'0 0.0
2017-Nov-15 02:30N 35°29' E 139°40'0 0.3
2017-Nov-15 02:01N 35°28' E 139°39'0 0.5
2017-Nov-15 01:30N 35°28' E 139°39'0 0.0
2017-Nov-15 01:01N 35°28' E 139°39'0 0.0
2017-Nov-15 00:30N 35°28' E 139°39'0 0.0
2017-Nov-15 00:00N 35°28' E 139°39'0 0.0
2017-Nov-14 23:30N 35°28' E 139°39'0 0.0
2017-Nov-14 23:01N 35°28' E 139°39'0 0.0
2017-Nov-14 22:31N 35°28' E 139°39'0 0.0
2017-Nov-14 22:00N 35°28' E 139°39'1 2.7
2017-Nov-14 21:31N 35°27' E 139°41'4 8.3
2017-Nov-14 21:01N 35°24' E 139°44'1 1.3
2017-Nov-14 20:30N 35°23' E 139°44'0 0.0
2017-Nov-14 20:01N 35°23' E 139°44'0 0.0
2017-Nov-14 19:31N 35°23' E 139°44'0 0.0
2017-Nov-14 19:01N 35°24' E 139°44'0 0.0
2017-Nov-14 18:30N 35°23' E 139°44'0 0.1
2017-Nov-14 18:01N 35°24' E 139°44'0 0.0
2017-Nov-14 17:31N 35°24' E 139°44'0 0.0
2017-Nov-14 17:00N 35°24' E 139°44'0 0.0
2017-Nov-14 16:30N 35°24' E 139°44'0 0.0
2017-Nov-14 16:00N 35°24' E 139°44'0 0.0
2017-Nov-14 15:30N 35°24' E 139°44'0 0.0
2017-Nov-14 15:01N 35°24' E 139°44'0 0.0
2017-Nov-14 14:31N 35°24' E 139°44'0 0.0
2017-Nov-14 14:01N 35°24' E 139°44'0 0.0
2017-Nov-14 13:31N 35°24' E 139°44'0 0.0
2017-Nov-14 13:00N 35°24' E 139°44'0 0.0
2017-Nov-14 12:31N 35°24' E 139°44'0 0.1
2017-Nov-14 12:00N 35°24' E 139°44'0 0.0
2017-Nov-14 11:31N 35°24' E 139°44'0 0.0
2017-Nov-14 11:01N 35°24' E 139°44'0 0.1
2017-Nov-14 10:31N 35°24' E 139°44'1 1.8
2017-Nov-14 10:01N 35°23' E 139°43'5 9.3
2017-Nov-14 09:31N 35°18' E 139°44'4 8.7
2017-Nov-14 09:00N 35°14' E 139°47'5 9.4
2017-Nov-14 08:30N 35°09' E 139°46'5 9.8
2017-Nov-14 08:00N 35°05' E 139°45'5 9.8
2017-Nov-14 07:30N 34°60' E 139°44'  
2017-Nov-10 09:27N 34°53' E 139°48'511.2
2017-Nov-10 08:58N 34°57' E 139°44'510.7
2017-Nov-10 08:30N 35°02' E 139°44'510.8
2017-Nov-10 08:00N 35°07' E 139°45'510.6
2017-Nov-10 07:30N 35°13' E 139°46'510.1
2017-Nov-10 07:00N 35°17' E 139°44'5 9.9
2017-Nov-10 06:30N 35°22' E 139°42'5 9.7
2017-Nov-10 06:01N 35°26' E 139°45'510.3
2017-Nov-10 05:30N 35°29' E 139°50'5 0.6
2017-Nov-09 21:44N 35°33' E 139°54'2 9.4
2017-Nov-09 21:30N 35°31' E 139°53'5 9.7
2017-Nov-09 21:00N 35°28' E 139°47'5 9.4
2017-Nov-09 20:30N 35°26' E 139°42'4 7.2
2017-Nov-09 20:00N 35°29' E 139°39'0 0.0
2017-Nov-09 19:30N 35°29' E 139°39'0 0.0
2017-Nov-09 19:01N 35°29' E 139°39'0 0.0
2017-Nov-09 18:30N 35°29' E 139°39'0 0.0
2017-Nov-09 18:00N 35°29' E 139°39'0 0.0
2017-Nov-09 17:30N 35°29' E 139°39'0 0.0
2017-Nov-09 17:01N 35°29' E 139°39'0 0.0
2017-Nov-09 16:30N 35°29' E 139°39'0 0.0
2017-Nov-09 16:01N 35°29' E 139°39'0 0.0
2017-Nov-09 15:31N 35°29' E 139°39'0 0.0
2017-Nov-09 15:01N 35°29' E 139°39'0 0.0
2017-Nov-09 14:31N 35°29' E 139°39'0 0.0
2017-Nov-09 14:00N 35°29' E 139°39'0 0.0
2017-Nov-09 13:31N 35°29' E 139°39'0 0.0
2017-Nov-09 13:00N 35°29' E 139°39'0 0.0
2017-Nov-09 12:31N 35°29' E 139°39'0 0.0
2017-Nov-09 12:01N 35°29' E 139°39'0 0.0
2017-Nov-09 11:30N 35°29' E 139°39'0 0.0
2017-Nov-09 11:01N 35°29' E 139°39'0 0.0
2017-Nov-09 10:31N 35°29' E 139°39'0 0.0
2017-Nov-09 10:01N 35°29' E 139°39'0 0.0
2017-Nov-09 09:30N 35°29' E 139°39'0 0.0
2017-Nov-09 09:01N 35°29' E 139°39'0 0.0
2017-Nov-09 08:30N 35°29' E 139°39'0 0.0
2017-Nov-09 08:01N 35°29' E 139°39'0 0.0
2017-Nov-09 07:31N 35°29' E 139°39'0 0.0
2017-Nov-09 07:01N 35°29' E 139°39'0 0.0
2017-Nov-09 06:31N 35°29' E 139°39'0 0.0
2017-Nov-09 06:00N 35°29' E 139°39'0 0.0
2017-Nov-09 05:30N 35°29' E 139°39'0 0.0
2017-Nov-09 05:00N 35°29' E 139°39'0 0.0
2017-Nov-09 04:31N 35°29' E 139°39'0 0.0
2017-Nov-09 04:00N 35°29' E 139°39'0 0.0
2017-Nov-09 03:31N 35°29' E 139°39'0 0.0
2017-Nov-09 03:00N 35°29' E 139°39'0 0.7
2017-Nov-09 02:31N 35°28' E 139°39'0 0.6
2017-Nov-09 02:00N 35°28' E 139°39'0 0.0
2017-Nov-09 01:30N 35°28' E 139°39'0 0.0
2017-Nov-09 01:00N 35°28' E 139°39'0 0.0
2017-Nov-09 00:31N 35°28' E 139°39'0 0.0
2017-Nov-09 00:01N 35°28' E 139°39'0 0.0
2017-Nov-08 23:30N 35°28' E 139°39'0 0.0
2017-Nov-08 23:01N 35°28' E 139°39'0 0.0
2017-Nov-08 22:31N 35°28' E 139°39'0 0.0
2017-Nov-08 22:01N 35°28' E 139°39'2 3.8
2017-Nov-08 21:31N 35°27' E 139°41'3 6.9
2017-Nov-08 21:01N 35°25' E 139°44'1 1.2
2017-Nov-08 20:31N 35°24' E 139°44'0 0.1
2017-Nov-08 20:00N 35°24' E 139°44'0 0.1
2017-Nov-08 19:30N 35°24' E 139°44'0 0.0
2017-Nov-08 19:01N 35°24' E 139°44'0 0.0
2017-Nov-08 18:31N 35°24' E 139°44'0 0.1
2017-Nov-08 18:01N 35°24' E 139°44'0 0.1
2017-Nov-08 17:30N 35°24' E 139°44'0 0.0
2017-Nov-08 17:00N 35°24' E 139°44'0 0.0
2017-Nov-08 16:30N 35°24' E 139°44'0 0.0
2017-Nov-08 16:00N 35°24' E 139°44'0 0.0
2017-Nov-08 15:31N 35°24' E 139°44'0 0.0
2017-Nov-08 15:00N 35°24' E 139°44'0 0.0
2017-Nov-08 14:31N 35°24' E 139°44'0 0.0
2017-Nov-08 14:00N 35°24' E 139°44'0 0.0
2017-Nov-08 13:30N 35°24' E 139°44'0 0.0
2017-Nov-08 13:00N 35°24' E 139°44'0 0.1
2017-Nov-08 12:31N 35°24' E 139°44'0 0.0
2017-Nov-08 12:01N 35°24' E 139°44'0 0.0
2017-Nov-08 11:31N 35°24' E 139°44'0 0.0
2017-Nov-08 11:01N 35°24' E 139°44'0 0.0
2017-Nov-08 10:30N 35°24' E 139°44'0 0.0
2017-Nov-08 10:01N 35°24' E 139°44'0 0.0
2017-Nov-08 09:31N 35°24' E 139°44'3 5.6
2017-Nov-08 09:01N 35°22' E 139°43'510.2
2017-Nov-08 08:30N 35°17' E 139°46'610.1
2017-Nov-08 07:57N 35°11' E 139°47'  
Track history (hours):
 
Tides and Currents Weather Stations Pressure Air Temp Water Temp Dewpoint Dewpoint Depression Visibility Wind Speed Wind Dir Waves Ship Positions

Takasugawamaru

Last reported at 2017-Nov-15 12:59 UTC. Time now 2017-Nov-25 02:10 UTC.
Position N 35°01' E 139°28'.
Warning: this ship's position is 9 days out of date.

Length 64 m; draft 5.2 m.

Type: Cargo ship. MMSI: 431100208.

Date/timePositionNaut miles runAvg speedWind from/ knotsBaromVisibWave heightAir tempDewpointWater temp
2017-Nov-15 12:59N 35°01' E 139°28'5 8.7
2017-Nov-15 12:25N 35°03' E 139°33'4 8.9
2017-Nov-15 12:00N 35°05' E 139°37'5 9.8
2017-Nov-15 11:30N 35°08' E 139°42'510.7
2017-Nov-15 11:00N 35°12' E 139°46'510.7
2017-Nov-15 10:30N 35°17' E 139°45'510.2
2017-Nov-15 10:00N 35°22' E 139°42'5 9.9
2017-Nov-15 09:31N 35°27' E 139°41'2 4.4
2017-Nov-15 09:01N 35°29' E 139°40'0 0.0
2017-Nov-15 08:30N 35°29' E 139°40'0 0.0
2017-Nov-15 08:01N 35°29' E 139°40'0 0.0
2017-Nov-15 07:31N 35°29' E 139°40'0 0.0
2017-Nov-15 07:00N 35°29' E 139°40'0 0.0
2017-Nov-15 06:30N 35°29' E 139°40'0 0.0
2017-Nov-15 06:01N 35°29' E 139°40'0 0.0
2017-Nov-15 05:31N 35°29' E 139°40'0 0.0
2017-Nov-15 05:00N 35°29' E 139°40'0 0.0
2017-Nov-15 04:31N 35°29' E 139°40'0 0.0
2017-Nov-15 04:01N 35°29' E 139°40'0 0.0
2017-Nov-15 03:30N 35°29' E 139°40'0 0.0
2017-Nov-15 03:00N 35°29' E 139°40'0 0.0
2017-Nov-15 02:30N 35°29' E 139°40'0 0.3
2017-Nov-15 02:01N 35°28' E 139°39'0 0.5
2017-Nov-15 01:30N 35°28' E 139°39'0 0.0
2017-Nov-15 01:01N 35°28' E 139°39'0 0.0
2017-Nov-15 00:30N 35°28' E 139°39'0 0.0
2017-Nov-15 00:00N 35°28' E 139°39'0 0.0
2017-Nov-14 23:30N 35°28' E 139°39'0 0.0
2017-Nov-14 23:01N 35°28' E 139°39'0 0.0
2017-Nov-14 22:31N 35°28' E 139°39'0 0.0
2017-Nov-14 22:00N 35°28' E 139°39'1 2.7
2017-Nov-14 21:31N 35°27' E 139°41'4 8.3
2017-Nov-14 21:01N 35°24' E 139°44'1 1.3
2017-Nov-14 20:30N 35°23' E 139°44'0 0.0
2017-Nov-14 20:01N 35°23' E 139°44'0 0.0
2017-Nov-14 19:31N 35°23' E 139°44'0 0.0
2017-Nov-14 19:01N 35°24' E 139°44'0 0.0
2017-Nov-14 18:30N 35°23' E 139°44'0 0.1
2017-Nov-14 18:01N 35°24' E 139°44'0 0.0
2017-Nov-14 17:31N 35°24' E 139°44'0 0.0
2017-Nov-14 17:00N 35°24' E 139°44'0 0.0
2017-Nov-14 16:30N 35°24' E 139°44'0 0.0
2017-Nov-14 16:00N 35°24' E 139°44'0 0.0
2017-Nov-14 15:30N 35°24' E 139°44'0 0.0
2017-Nov-14 15:01N 35°24' E 139°44'0 0.0
2017-Nov-14 14:31N 35°24' E 139°44'0 0.0
2017-Nov-14 14:01N 35°24' E 139°44'0 0.0
2017-Nov-14 13:31N 35°24' E 139°44'0 0.0
2017-Nov-14 13:00N 35°24' E 139°44'0 0.0
2017-Nov-14 12:31N 35°24' E 139°44'0 0.1
2017-Nov-14 12:00N 35°24' E 139°44'0 0.0
2017-Nov-14 11:31N 35°24' E 139°44'0 0.0
2017-Nov-14 11:01N 35°24' E 139°44'0 0.1
2017-Nov-14 10:31N 35°24' E 139°44'1 1.8
2017-Nov-14 10:01N 35°23' E 139°43'5 9.3
2017-Nov-14 09:31N 35°18' E 139°44'4 8.7
2017-Nov-14 09:00N 35°14' E 139°47'5 9.4
2017-Nov-14 08:30N 35°09' E 139°46'5 9.8
2017-Nov-14 08:00N 35°05' E 139°45'5 9.8
2017-Nov-14 07:30N 34°60' E 139°44'  
2017-Nov-10 09:27N 34°53' E 139°48'511.2
2017-Nov-10 08:58N 34°57' E 139°44'510.7
2017-Nov-10 08:30N 35°02' E 139°44'510.8
2017-Nov-10 08:00N 35°07' E 139°45'510.6
2017-Nov-10 07:30N 35°13' E 139°46'510.1
2017-Nov-10 07:00N 35°17' E 139°44'5 9.9
2017-Nov-10 06:30N 35°22' E 139°42'5 9.7
2017-Nov-10 06:01N 35°26' E 139°45'510.3
2017-Nov-10 05:30N 35°29' E 139°50'5 0.6
2017-Nov-09 21:44N 35°33' E 139°54'2 9.4
2017-Nov-09 21:30N 35°31' E 139°53'5 9.7
2017-Nov-09 21:00N 35°28' E 139°47'5 9.4
2017-Nov-09 20:30N 35°26' E 139°42'4 7.2
2017-Nov-09 20:00N 35°29' E 139°39'0 0.0
2017-Nov-09 19:30N 35°29' E 139°39'0 0.0
2017-Nov-09 19:01N 35°29' E 139°39'0 0.0
2017-Nov-09 18:30N 35°29' E 139°39'0 0.0
2017-Nov-09 18:00N 35°29' E 139°39'0 0.0
2017-Nov-09 17:30N 35°29' E 139°39'0 0.0
2017-Nov-09 17:01N 35°29' E 139°39'0 0.0
2017-Nov-09 16:30N 35°29' E 139°39'0 0.0
2017-Nov-09 16:01N 35°29' E 139°39'0 0.0
2017-Nov-09 15:31N 35°29' E 139°39'0 0.0
2017-Nov-09 15:01N 35°29' E 139°39'0 0.0
2017-Nov-09 14:31N 35°29' E 139°39'0 0.0
2017-Nov-09 14:00N 35°29' E 139°39'0 0.0
2017-Nov-09 13:31N 35°29' E 139°39'0 0.0
2017-Nov-09 13:00N 35°29' E 139°39'0 0.0
2017-Nov-09 12:31N 35°29' E 139°39'0 0.0
2017-Nov-09 12:01N 35°29' E 139°39'0 0.0
2017-Nov-09 11:30N 35°29' E 139°39'0 0.0
2017-Nov-09 11:01N 35°29' E 139°39'0 0.0
2017-Nov-09 10:31N 35°29' E 139°39'0 0.0
2017-Nov-09 10:01N 35°29' E 139°39'0 0.0
2017-Nov-09 09:30N 35°29' E 139°39'0 0.0
2017-Nov-09 09:01N 35°29' E 139°39'0 0.0
2017-Nov-09 08:30N 35°29' E 139°39'0 0.0
2017-Nov-09 08:01N 35°29' E 139°39'0 0.0
2017-Nov-09 07:31N 35°29' E 139°39'0 0.0
2017-Nov-09 07:01N 35°29' E 139°39'0 0.0
2017-Nov-09 06:31N 35°29' E 139°39'0 0.0
2017-Nov-09 06:00N 35°29' E 139°39'0 0.0
2017-Nov-09 05:30N 35°29' E 139°39'0 0.0
2017-Nov-09 05:00N 35°29' E 139°39'0 0.0
2017-Nov-09 04:31N 35°29' E 139°39'0 0.0
2017-Nov-09 04:00N 35°29' E 139°39'0 0.0
2017-Nov-09 03:31N 35°29' E 139°39'0 0.0
2017-Nov-09 03:00N 35°29' E 139°39'0 0.7
2017-Nov-09 02:31N 35°28' E 139°39'0 0.6
2017-Nov-09 02:00N 35°28' E 139°39'0 0.0
2017-Nov-09 01:30N 35°28' E 139°39'0 0.0
2017-Nov-09 01:00N 35°28' E 139°39'0 0.0
2017-Nov-09 00:31N 35°28' E 139°39'0 0.0
2017-Nov-09 00:01N 35°28' E 139°39'0 0.0
2017-Nov-08 23:30N 35°28' E 139°39'0 0.0
2017-Nov-08 23:01N 35°28' E 139°39'0 0.0
2017-Nov-08 22:31N 35°28' E 139°39'0 0.0
2017-Nov-08 22:01N 35°28' E 139°39'2 3.8
2017-Nov-08 21:31N 35°27' E 139°41'3 6.9
2017-Nov-08 21:01N 35°25' E 139°44'1 1.2
2017-Nov-08 20:31N 35°24' E 139°44'0 0.1
2017-Nov-08 20:00N 35°24' E 139°44'0 0.1
2017-Nov-08 19:30N 35°24' E 139°44'0 0.0
2017-Nov-08 19:01N 35°24' E 139°44'0 0.0
2017-Nov-08 18:31N 35°24' E 139°44'0 0.1
2017-Nov-08 18:01N 35°24' E 139°44'0 0.1
2017-Nov-08 17:30N 35°24' E 139°44'0 0.0
2017-Nov-08 17:00N 35°24' E 139°44'0 0.0
2017-Nov-08 16:30N 35°24' E 139°44'0 0.0
2017-Nov-08 16:00N 35°24' E 139°44'0 0.0
2017-Nov-08 15:31N 35°24' E 139°44'0 0.0
2017-Nov-08 15:00N 35°24' E 139°44'0 0.0
2017-Nov-08 14:31N 35°24' E 139°44'0 0.0
2017-Nov-08 14:00N 35°24' E 139°44'0 0.0
2017-Nov-08 13:30N 35°24' E 139°44'0 0.0
2017-Nov-08 13:00N 35°24' E 139°44'0 0.1
2017-Nov-08 12:31N 35°24' E 139°44'0 0.0
2017-Nov-08 12:01N 35°24' E 139°44'0 0.0
2017-Nov-08 11:31N 35°24' E 139°44'0 0.0
2017-Nov-08 11:01N 35°24' E 139°44'0 0.0
2017-Nov-08 10:30N 35°24' E 139°44'0 0.0
2017-Nov-08 10:01N 35°24' E 139°44'0 0.0
2017-Nov-08 09:31N 35°24' E 139°44'3 5.6
2017-Nov-08 09:01N 35°22' E 139°43'510.2
2017-Nov-08 08:30N 35°17' E 139°46'610.1
2017-Nov-08 07:57N 35°11' E 139°47'  

Dump ship's entire track history